Time;durP1;ratioP1;P1;durP2;ratioP2;P2;SDS_P1;SDS_P2;PMS_P1;PMS_P2;Temp;Humidity;BMP_temperature;BMP_pressure;BME280_temperature;BME280_humidity;BME280_pressure;Samples;Min_cycle;Max_cycle;Signal;HPM_P1;HPM_P2
2021/03/07 20:35:56;;;;;;;46.53;11.65;;;;;;;5.26;61.43;101344.23;1746135;79;23326;-58
2021/03/07 20:38:29;;;;;;;44.42;12.45;;;;;;;5.12;64.38;101342.58;1733182;82;21155;-56
2021/03/07 20:40:58;;;;;;;57.85;15.30;;;;;;;5.03;65.10;101336.75;1718989;82;21366;-56
2021/03/07 20:43:27;;;;;;;70.40;17.65;;;;;;;4.96;65.49;101340.45;1734556;82;21230;-57
2021/03/07 20:45:57;;;;;;;93.85;25.12;;;;;;;4.93;65.61;101337.38;1731246;80;21179;-56
2021/03/07 20:48:37;;;;;;;90.17;23.80;;;;;;;4.96;65.51;101337.45;1858350;76;22704;-56
2021/03/07 20:51:06;;;;;;;95.83;29.50;;;;;;;4.96;65.34;101330.02;1834521;76;21626;-56
2021/03/07 20:53:36;;;;;;;79.07;20.17;;;;;;;4.96;64.83;101335.23;1833770;76;21183;-55
2021/03/07 20:56:07;;;;;;;74.58;21.23;;;;;;;4.90;64.67;101330.78;1845536;76;21170;-56
2021/03/07 20:58:37;;;;;;;31.95;11.20;;;;;;;4.87;64.48;101331.58;1835497;76;21351;-56
2021/03/07 21:01:05;;;;;;;33.80;9.55;;;;;;;4.85;64.50;101328.46;1830439;77;21166;-57
2021/03/07 21:03:33;;;;;;;29.25;9.13;;;;;;;4.84;64.50;101323.68;1838794;76;21225;-56
2021/03/07 21:06:06;;;;;;;24.92;7.37;;;;;;;4.81;64.33;101323.61;1788528;78;22824;-57
2021/03/07 21:08:35;;;;;;;16.10;5.12;;;;;;;4.81;64.44;101318.80;1769217;79;21539;-57
2021/03/07 21:11:03;;;;;;;17.77;6.65;;;;;;;4.85;64.30;101319.34;1773007;79;21185;-57
2021/03/07 21:13:32;;;;;;;33.95;17.23;;;;;;;4.80;64.17;101311.41;1774129;79;21602;-57
2021/03/07 21:16:03;;;;;;;25.35;12.88;;;;;;;4.79;64.31;101310.06;1776636;79;21609;-58
2021/03/07 21:18:31;;;;;;;26.85;14.00;;;;;;;4.79;64.26;101308.33;1767128;79;21199;-57
2021/03/07 21:20:59;;;;;;;21.05;9.73;;;;;;;4.78;64.28;101303.98;1769920;79;21193;-57
2021/03/07 21:23:27;;;;;;;18.15;7.60;;;;;;;4.78;64.20;101303.08;1768695;80;21185;-58
2021/03/07 21:25:55;;;;;;;20.65;9.93;;;;;;;4.73;64.22;101302.53;1769054;79;21246;-57
2021/03/07 21:28:23;;;;;;;17.32;7.90;;;;;;;4.70;64.26;101297.25;1767532;79;21525;-57
2021/03/07 21:30:51;;;;;;;14.98;7.28;;;;;;;4.65;64.34;101298.00;1766866;79;21209;-56
2021/03/07 21:33:19;;;;;;;14.45;6.12;;;;;;;4.59;64.47;101290.91;1767805;79;21303;-58
2021/03/07 21:35:47;;;;;;;19.30;7.95;;;;;;;4.57;64.53;101297.38;1770037;79;21643;-57
2021/03/07 21:38:15;;;;;;;17.87;5.55;;;;;;;4.52;64.59;101291.59;1769037;79;21602;-56
2021/03/07 21:40:43;;;;;;;8.50;5.30;;;;;;;4.47;64.77;101286.66;1767113;79;21146;-56
2021/03/07 21:43:11;;;;;;;9.90;4.70;;;;;;;4.42;65.01;101277.86;1767151;79;23226;-57
2021/03/07 21:45:39;;;;;;;10.20;4.67;;;;;;;4.43;65.21;101279.63;1771706;78;21182;-57
2021/03/07 21:48:09;;;;;;;10.85;4.62;;;;;;;4.43;65.35;101283.55;1770950;79;21206;-57
2021/03/07 21:50:37;;;;;;;8.20;4.15;;;;;;;4.46;65.46;101284.48;1764203;79;21568;-56
2021/03/07 21:53:05;;;;;;;12.73;4.10;;;;;;;4.53;65.39;101275.12;1764993;79;21138;-56
2021/03/07 21:55:34;;;;;;;10.23;4.55;;;;;;;4.57;65.41;101270.02;1763468;79;22158;-56
2021/03/07 21:58:02;;;;;;;10.23;4.25;;;;;;;4.74;65.32;101265.20;1823080;78;21232;-57
2021/03/07 22:00:30;;;;;;;9.10;4.40;;;;;;;4.85;64.92;101264.15;1801971;79;21186;-57
2021/03/07 22:02:58;;;;;;;11.60;4.42;;;;;;;4.87;64.75;101260.27;1823881;78;21430;-57
2021/03/07 22:05:26;;;;;;;13.10;4.37;;;;;;;4.87;64.68;101261.58;1791994;80;21127;-57
2021/03/07 22:07:54;;;;;;;7.17;3.47;;;;;;;4.90;64.55;101259.07;1823890;78;21269;-56
2021/03/07 22:10:22;;;;;;;11.03;5.25;;;;;;;4.91;64.48;101255.19;1791839;80;21171;-56
2021/03/07 22:12:52;;;;;;;21.35;7.55;;;;;;;4.98;64.31;101245.77;1824238;78;21498;-56
2021/03/07 22:15:20;;;;;;;14.68;7.37;;;;;;;4.98;64.09;101247.08;1791916;80;21542;-56
2021/03/07 22:17:48;;;;;;;16.25;8.35;;;;;;;4.89;64.06;101244.26;1798834;78;21325;-55
2021/03/07 22:20:17;;;;;;;23.60;9.63;;;;;;;4.83;64.13;101241.08;1799009;78;21371;-58
2021/03/07 22:22:46;;;;;;;24.50;9.88;;;;;;;4.77;64.23;101240.94;1799139;79;21193;-57
2021/03/07 22:25:14;;;;;;;16.48;8.38;;;;;;;4.70;64.34;101238.59;1778101;79;21129;-56
2021/03/07 22:27:44;;;;;;;13.48;6.97;;;;;;;4.68;64.50;101238.99;1767616;80;21209;-56
2021/03/07 22:30:14;;;;;;;17.17;7.35;;;;;;;4.69;64.61;101233.34;1786743;79;21636;-55
2021/03/07 22:32:43;;;;;;;13.95;6.90;;;;;;;4.72;64.58;101241.23;1798117;79;21640;-55
2021/03/07 22:35:12;;;;;;;11.93;5.33;;;;;;;4.70;64.57;101235.98;1798411;79;21189;-55
2021/03/07 22:37:41;;;;;;;13.48;5.75;;;;;;;4.67;64.63;101232.44;1798576;79;21173;-55
2021/03/07 22:40:09;;;;;;;10.93;4.10;;;;;;;4.64;64.78;101230.63;1798256;79;21169;-55
2021/03/07 22:42:37;;;;;;;13.22;8.60;;;;;;;4.63;64.88;101231.50;1798750;79;21621;-55
2021/03/07 22:45:07;;;;;;;15.15;6.70;;;;;;;4.60;65.02;101234.00;1798808;79;21372;-55
2021/03/07 22:47:34;;;;;;;10.40;5.40;;;;;;;4.57;65.18;101235.23;1794327;79;21145;-55
2021/03/07 22:50:05;;;;;;;9.18;3.95;;;;;;;4.53;65.24;101234.30;1782830;79;21165;-55
2021/03/07 22:52:33;;;;;;;8.15;4.08;;;;;;;4.48;65.36;101233.71;1766959;81;21584;-55
2021/03/07 22:55:01;;;;;;;11.55;4.87;;;;;;;4.39;65.53;101236.56;1767171;81;21125;-55
2021/03/07 22:57:29;;;;;;;11.40;5.83;;;;;;;4.35;65.70;101230.81;1772652;79;21326;-55
2021/03/07 22:59:56;;;;;;;9.65;4.80;;;;;;;4.30;65.77;101229.80;1769910;81;21272;-57
2021/03/07 23:02:24;;;;;;;8.03;4.17;;;;;;;4.27;66.02;101231.02;1769836;81;21162;-57
2021/03/07 23:04:51;;;;;;;10.72;4.45;;;;;;;4.29;66.14;101229.76;1769992;81;21511;-58
2021/03/07 23:07:20;;;;;;;12.73;6.30;;;;;;;4.32;66.17;101227.23;1770140;81;21160;-57
2021/03/07 23:09:48;;;;;;;13.20;5.72;;;;;;;4.31;66.16;101223.75;1770078;81;21395;-55
2021/03/07 23:12:16;;;;;;;12.65;3.92;;;;;;;4.31;66.19;101226.79;1770089;80;21248;-54
2021/03/07 23:14:44;;;;;;;13.40;4.67;;;;;;;4.36;66.21;101225.17;1758031;81;21158;-55
2021/03/07 23:17:11;;;;;;;15.32;4.25;;;;;;;4.36;66.18;101226.47;1796757;79;21176;-56
2021/03/07 23:19:39;;;;;;;10.03;3.72;;;;;;;4.42;66.17;101221.41;1798589;79;21184;-56
2021/03/07 23:22:06;;;;;;;8.68;3.60;;;;;;;4.47;66.07;101217.61;1799179;79;22157;-56
2021/03/07 23:24:34;;;;;;;11.48;4.15;;;;;;;4.47;66.03;101217.61;1798854;79;21145;-56
2021/03/07 23:27:03;;;;;;;10.43;3.55;;;;;;;4.43;66.02;101213.19;1799304;78;21165;-55
2021/03/07 23:29:31;;;;;;;9.78;3.83;;;;;;;4.37;66.06;101209.57;1799347;79;21141;-56
2021/03/07 23:31:58;;;;;;;10.93;5.10;;;;;;;4.31;66.11;101205.95;1799068;79;21102;-56
2021/03/07 23:34:27;;;;;;;13.40;4.67;;;;;;;4.26;66.22;101211.45;1799403;79;21204;-56
2021/03/07 23:36:54;;;;;;;13.22;4.30;;;;;;;4.20;66.36;101205.66;1799282;79;21125;-56
2021/03/07 23:39:22;;;;;;;6.55;3.50;;;;;;;4.14;66.52;101206.80;1799120;79;21141;-56
2021/03/07 23:41:49;;;;;;;12.10;4.20;;;;;;;4.10;66.66;101204.96;1798953;79;21176;-55
2021/03/07 23:44:17;;;;;;;8.73;3.98;;;;;;;4.07;66.77;101202.28;1799346;79;21164;-55
2021/03/07 23:46:45;;;;;;;11.40;4.25;;;;;;;4.06;66.93;101200.11;1774429;79;22368;-55
2021/03/07 23:49:13;;;;;;;8.05;3.08;;;;;;;4.10;66.99;101196.75;1744500;81;21556;-55
2021/03/07 23:51:41;;;;;;;11.75;4.25;;;;;;;4.13;66.96;101192.05;1739086;81;21122;-56
2021/03/07 23:54:09;;;;;;;11.85;3.80;;;;;;;4.16;66.94;101182.58;1738968;81;21138;-55
2021/03/07 23:56:36;;;;;;;12.70;4.05;;;;;;;4.23;66.94;101187.10;1738850;82;21126;-56
2021/03/07 23:59:04;;;;;;;14.47;4.65;;;;;;;4.35;66.69;101180.01;1738607;82;22189;-55
